首页
METAR-TAF:

METAR-TAF

机场 :

海口美兰国际机场

海口, 中华人民共和国

纬度: 19-56-05N, 经度: 110-27-32E, 海拔: 23米

当前天气观测

该预报发布于29分钟前的02:00 UTC
风速4节,风向西,在西南西转西北之间变化
温度 30°C
湿度 79%
气压 1004 hPa
能见度10公里或以上
少量云层高于1200英尺

METAR: ZJHK 190200Z 26002MPS 230V290 9999 FEW012 30/26 Q1004 NOSIG

时间: 10:29 (02:29 UTC)

预报

该预报发布于7小时和17分钟前的19:12 UTC
预报有效从19日的 00点(UTC)到 19日的 24点(UTC)
风速6节,风向西转西南
能见度10公里或以上
散云层高于2000英尺
短暂存在
从 19日的 06点(UTC)到 19日的 12点(UTC)
散云层高于2000英尺
少量云层高于2600英尺, 积雨云.
雷暴, 雨

TAF: ZJHK 181912Z 1900/1924 24003MPS 9999 SCT020 TX32/1907Z TN26/1921Z TEMPO 1906/1912 TSRA SCT020 FEW026CB

超过4000个机场的气象观测和天气预报(METAR&TAF报告)。

可查询的气象台以黄色和红色小点在地图上表示。

将鼠标移到小点上方,可查看气象台名称。

然后点击查看天气观测和预报。

如需切换地图:点击带黑十字的绿色按钮放大地图;点击带横线的绿色按钮缩小地图;或者点击绿色箭头查看邻近地区的地图。


METAR-TAF: